Time;durP1;ratioP1;P1;durP2;ratioP2;P2;SDS_P1;SDS_P2;PMS_P1;PMS_P2;Temp;Humidity;BMP_temperature;BMP_pressure;BME280_temperature;BME280_humidity;BME280_pressure;Samples;Min_cycle;Max_cycle;Signal;HPM_P1;HPM_P2
2023/08/18 00:01:44;;;;;;;34.30;25.58;;;;;;;18.09;100.00;101007.81;5022791;28;20049;-79
2023/08/18 00:04:10;;;;;;;28.73;25.27;;;;;;;18.06;100.00;101006.38;5032271;28;20045;-81
2023/08/18 00:06:37;;;;;;;34.97;25.77;;;;;;;17.99;100.00;101010.81;5032318;28;20115;-80
2023/08/18 00:09:05;;;;;;;34.22;25.25;;;;;;;18.00;100.00;101004.50;5025374;28;20131;-79
2023/08/18 00:11:31;;;;;;;31.38;26.02;;;;;;;17.98;100.00;101008.34;5029346;28;20045;-78
2023/08/18 00:13:59;;;;;;;31.50;25.33;;;;;;;17.96;100.00;101008.53;5018335;28;20076;-78
2023/08/18 00:16:26;;;;;;;36.05;26.55;;;;;;;17.92;100.00;100999.38;5022592;28;20053;-79
2023/08/18 00:18:53;;;;;;;31.63;24.95;;;;;;;17.79;100.00;101005.41;5026681;28;20136;-79
2023/08/18 00:21:19;;;;;;;32.45;26.25;;;;;;;17.90;100.00;101010.16;5031547;28;20080;-82
2023/08/18 00:23:46;;;;;;;33.83;26.83;;;;;;;17.89;100.00;100999.78;5034540;28;20076;-79
2023/08/18 00:26:13;;;;;;;32.67;26.83;;;;;;;17.90;100.00;101001.41;5031886;28;20137;-79
2023/08/18 00:28:39;;;;;;;33.30;26.70;;;;;;;17.83;100.00;101003.19;5012802;28;20046;-78
2023/08/18 00:31:07;;;;;;;33.53;26.77;;;;;;;17.75;100.00;100998.06;5015201;28;20474;-80
2023/08/18 00:33:34;;;;;;;37.95;26.63;;;;;;;17.72;100.00;100993.97;5029548;28;20045;-81
2023/08/18 00:36:00;;;;;;;38.90;27.98;;;;;;;17.73;100.00;101000.06;5026617;28;20175;-80
2023/08/18 00:38:27;;;;;;;37.00;27.58;;;;;;;17.69;100.00;100993.53;5016009;28;20132;-80
2023/08/18 00:40:55;;;;;;;36.60;27.98;;;;;;;17.65;100.00;100997.53;5014997;28;20084;-81
2023/08/18 00:43:22;;;;;;;36.05;27.88;;;;;;;17.66;100.00;100997.38;5019121;28;20228;-80
2023/08/18 00:45:49;;;;;;;34.60;27.25;;;;;;;17.68;100.00;100986.59;5023006;28;20112;-81
2023/08/18 00:48:17;;;;;;;36.35;27.30;;;;;;;17.67;100.00;100990.25;5027807;28;20480;-80
2023/08/18 00:50:45;;;;;;;39.65;28.00;;;;;;;17.67;100.00;100984.97;5023715;28;20066;-80
2023/08/18 00:53:12;;;;;;;39.85;28.60;;;;;;;17.66;100.00;100989.44;5016112;28;20050;-80
2023/08/18 00:55:40;;;;;;;36.70;29.40;;;;;;;17.65;100.00;100982.50;5011406;28;20488;-81
2023/08/18 00:58:07;;;;;;;38.38;28.58;;;;;;;17.65;100.00;100976.38;5015201;28;20079;-81
2023/08/18 01:00:35;;;;;;;37.85;29.35;;;;;;;17.61;100.00;100986.50;5020996;28;20468;-79
2023/08/18 01:03:04;;;;;;;38.65;29.60;;;;;;;17.61;100.00;100986.50;5029793;28;20064;-80
2023/08/18 01:05:32;;;;;;;38.22;29.08;;;;;;;17.63;100.00;100983.69;5011677;28;20092;-80
2023/08/18 01:08:01;;;;;;;40.97;29.45;;;;;;;17.59;100.00;100986.72;5021244;28;20073;-79
2023/08/18 01:10:29;;;;;;;37.67;30.58;;;;;;;17.58;100.00;100977.13;5021216;28;20081;-81
2023/08/18 01:13:12;;;;;;;40.97;29.17;;;;;;;17.61;100.00;100975.13;5018831;28;20053;-82
2023/08/18 01:15:41;;;;;;;36.83;28.23;;;;;;;17.60;100.00;100982.22;5016302;28;20160;-81
2023/08/18 01:18:11;;;;;;;37.55;29.38;;;;;;;17.58;100.00;100979.78;5032557;28;20560;-81
2023/08/18 01:20:39;;;;;;;41.47;28.73;;;;;;;17.59;100.00;100984.06;5035126;28;20116;-81
2023/08/18 01:23:08;;;;;;;37.25;28.15;;;;;;;17.52;100.00;100983.19;5023878;28;20136;-82
2023/08/18 01:25:35;;;;;;;39.72;29.77;;;;;;;17.50;100.00;100979.94;5009703;28;20132;-79
2023/08/18 01:28:06;;;;;;;38.25;28.45;;;;;;;17.44;100.00;100978.06;5031063;28;20144;-81
2023/08/18 01:30:37;;;;;;;37.58;28.70;;;;;;;17.39;100.00;100975.19;5014101;28;20046;-80
2023/08/18 01:33:09;;;;;;;36.92;27.80;;;;;;;17.37;100.00;100968.44;5031189;28;20132;-79
2023/08/18 01:35:36;;;;;;;40.00;29.00;;;;;;;17.36;100.00;100967.63;5028721;28;20049;-79
2023/08/18 01:38:04;;;;;;;40.38;28.77;;;;;;;17.32;100.00;100974.31;5040999;28;20136;-82
2023/08/18 01:40:34;;;;;;;38.42;29.50;;;;;;;17.33;100.00;100965.38;5041106;28;20100;-79
2023/08/18 01:43:01;;;;;;;37.35;28.90;;;;;;;17.31;100.00;100964.75;5040493;28;20495;-82
2023/08/18 01:45:27;;;;;;;40.55;29.67;;;;;;;17.26;100.00;100956.56;5024967;28;20067;-81
2023/08/18 01:47:54;;;;;;;40.83;29.77;;;;;;;17.30;100.00;100962.28;5030085;28;20045;-80
2023/08/18 01:50:21;;;;;;;44.70;29.70;;;;;;;17.26;100.00;100961.84;5031204;28;20071;-78
2023/08/18 01:52:47;;;;;;;38.78;29.83;;;;;;;17.31;100.00;100964.75;5018955;28;20527;-81
2023/08/18 01:58:00;;;;;;;45.28;33.13;;;;;;;17.19;100.00;100960.97;5022064;28;20060;-80
2023/08/18 02:00:45;;;;;;;44.22;32.33;;;;;;;17.16;100.00;100962.19;5016749;28;20073;-80
2023/08/18 02:03:49;;;;;;;46.55;32.88;;;;;;;17.11;100.00;100963.75;5034258;28;20073;-80
2023/08/18 02:06:16;;;;;;;44.85;32.13;;;;;;;17.09;100.00;100953.38;5021515;28;20145;-79
2023/08/18 02:08:42;;;;;;;46.13;32.00;;;;;;;17.11;100.00;100958.47;5022846;28;20054;-80
2023/08/18 02:11:09;;;;;;;45.58;32.97;;;;;;;17.10;100.00;100955.00;5021821;28;20069;-79
2023/08/18 02:13:37;;;;;;;48.47;34.00;;;;;;;17.11;100.00;100947.88;5015640;28;20117;-79
2023/08/18 02:16:04;;;;;;;46.65;32.78;;;;;;;17.11;100.00;100958.47;5025762;28;20125;-80
2023/08/18 02:18:32;;;;;;;47.28;33.13;;;;;;;17.08;100.00;100958.84;5037046;28;20045;-80
2023/08/18 02:21:00;;;;;;;45.50;32.25;;;;;;;17.04;100.00;100962.88;5012699;28;20050;-82
2023/08/18 02:23:27;;;;;;;42.80;31.90;;;;;;;16.99;100.00;100952.06;5038933;28;20124;-79
2023/08/18 02:26:00;;;;;;;47.38;31.80;;;;;;;17.00;100.00;100961.66;5024025;28;20069;-77
2023/08/18 02:28:27;;;;;;;42.80;31.38;;;;;;;17.01;100.00;100964.09;5036484;28;20397;-81
2023/08/18 02:31:02;;;;;;;45.28;31.67;;;;;;;16.94;100.00;100963.22;5029428;28;20088;-78
2023/08/18 02:33:29;;;;;;;45.78;31.00;;;;;;;16.95;100.00;100964.03;5021491;28;20049;-80
2023/08/18 02:35:56;;;;;;;46.70;32.55;;;;;;;16.94;100.00;100957.09;5021618;28;20644;-80
2023/08/18 02:38:23;;;;;;;47.13;32.80;;;;;;;16.86;100.00;100955.41;5011330;28;20047;-80
2023/08/18 02:40:49;;;;;;;47.78;33.45;;;;;;;16.87;100.00;100955.22;5014736;28;20046;-80
2023/08/18 02:43:16;;;;;;;50.28;32.80;;;;;;;16.83;100.00;100959.25;5035164;28;20132;-79
2023/08/18 02:45:43;;;;;;;47.80;33.13;;;;;;;16.83;100.00;100955.78;5024025;28;20069;-80
2023/08/18 02:48:30;;;;;;;50.95;33.72;;;;;;;16.80;100.00;100950.88;5017424;28;20082;-82
2023/08/18 02:54:06;;;;;;;48.60;34.47;;;;;;;16.79;100.00;100944.78;5016158;28;20393;-82
2023/08/18 02:57:10;;;;;;;53.67;35.17;;;;;;;16.78;100.00;100937.03;5018617;28;20128;-81
2023/08/18 02:59:36;;;;;;;48.78;35.28;;;;;;;16.78;100.00;100945.78;5010405;28;20184;-80
2023/08/18 03:02:03;;;;;;;45.88;34.30;;;;;;;16.73;100.00;100944.72;5023409;28;20118;-81
2023/08/18 03:04:31;;;;;;;46.25;34.38;;;;;;;16.70;100.00;100945.09;5033714;28;20084;-81
2023/08/18 03:06:58;;;;;;;50.45;36.00;;;;;;;16.69;100.00;100936.34;5036726;28;20057;-81
2023/08/18 03:09:24;;;;;;;42.08;34.45;;;;;;;16.69;100.00;100938.16;5034508;28;20140;-81
2023/08/18 03:11:51;;;;;;;48.00;32.67;;;;;;;16.75;100.00;100946.16;5035340;28;20140;-81
2023/08/18 03:14:18;;;;;;;44.88;33.85;;;;;;;16.74;100.00;100941.88;5024361;28;20046;-79
2023/08/18 03:16:44;;;;;;;52.85;35.25;;;;;;;16.73;100.00;100955.28;5020364;28;20317;-78
2023/08/18 03:19:11;;;;;;;45.15;33.88;;;;;;;16.75;100.00;100958.56;5032103;28;20135;-80
2023/08/18 03:21:39;;;;;;;45.72;33.40;;;;;;;16.71;100.00;100960.75;5031301;28;20140;-78
2023/08/18 03:24:06;;;;;;;49.42;33.47;;;;;;;16.70;100.00;100956.47;5031543;28;20051;-79
2023/08/18 03:26:33;;;;;;;47.78;34.75;;;;;;;16.69;100.00;100961.94;5037928;28;20133;-79
2023/08/18 03:28:59;;;;;;;46.10;33.17;;;;;;;16.73;100.00;100961.38;5037483;28;20109;-79
2023/08/18 03:31:26;;;;;;;47.28;34.22;;;;;;;16.66;100.00;100959.66;5025588;28;20145;-80
2023/08/18 03:33:53;;;;;;;46.95;33.97;;;;;;;16.66;100.00;100960.50;5030262;28;20097;-79
2023/08/18 03:36:20;;;;;;;51.70;35.97;;;;;;;16.65;100.00;100958.84;5020092;28;20148;-81
2023/08/18 03:38:48;;;;;;;46.83;33.83;;;;;;;16.69;100.00;100957.47;5019334;28;20046;-80
2023/08/18 03:41:14;;;;;;;52.92;34.33;;;;;;;16.67;100.00;100954.19;5018125;28;20090;-80
2023/08/18 03:43:41;;;;;;;46.83;35.10;;;;;;;16.70;100.00;100945.91;5010943;28;20045;-79
2023/08/18 03:46:21;;;;;;;50.45;34.70;;;;;;;16.65;100.00;100953.56;5020599;28;20143;-79
2023/08/18 03:48:47;;;;;;;47.20;34.25;;;;;;;16.66;100.00;100949.91;5038050;28;20045;-79
2023/08/18 03:51:15;;;;;;;46.58;34.05;;;;;;;16.65;100.00;100948.28;5035119;28;20136;-81
2023/08/18 03:53:41;;;;;;;47.22;33.50;;;;;;;16.66;100.00;100952.56;5026624;28;20050;-80
2023/08/18 03:56:09;;;;;;;48.45;33.13;;;;;;;16.70;100.00;100950.38;5013738;28;20137;-79
2023/08/18 03:58:36;;;;;;;45.70;32.63;;;;;;;16.68;100.00;100955.84;5018960;28;20132;-79
2023/08/18 04:01:04;;;;;;;44.33;32.58;;;;;;;16.69;100.00;100954.81;5013322;28;20152;-81
2023/08/18 04:03:31;;;;;;;44.90;32.33;;;;;;;16.67;100.00;100956.03;5005669;28;20496;-80
2023/08/18 04:05:58;;;;;;;44.85;32.30;;;;;;;16.70;100.00;100956.47;5010245;28;20046;-80
2023/08/18 04:08:24;;;;;;;42.72;31.42;;;;;;;16.72;100.00;100962.38;5008937;28;20053;-79
2023/08/18 04:10:51;;;;;;;42.88;31.10;;;;;;;16.72;100.00;100959.75;5011731;28;20610;-80
2023/08/18 04:13:19;;;;;;;48.53;32.28;;;;;;;16.76;100.00;100963.66;5018181;28;20552;-79
2023/08/18 04:15:46;;;;;;;43.65;31.52;;;;;;;16.73;100.00;100966.66;5031182;28;20076;-79
2023/08/18 04:18:12;;;;;;;46.83;31.95;;;;;;;16.72;100.00;100958.91;5035601;28;20450;-79
2023/08/18 04:20:40;;;;;;;48.58;32.60;;;;;;;16.74;100.00;100972.75;5028483;28;20501;-80
2023/08/18 04:23:06;;;;;;;48.15;32.00;;;;;;;16.71;100.00;100963.38;5014525;28;20045;-80
2023/08/18 04:25:33;;;;;;;47.28;32.60;;;;;;;16.72;100.00;100965.03;5014003;28;20540;-80
2023/08/18 04:28:00;;;;;;;50.78;34.08;;;;;;;16.71;100.00;100966.03;5012090;28;20081;-78
2023/08/18 04:30:28;;;;;;;53.22;32.53;;;;;;;16.73;100.00;100961.38;5026982;28;20058;-80
2023/08/18 04:32:54;;;;;;;49.90;32.90;;;;;;;16.74;100.00;100970.13;5026322;28;20045;-80
2023/08/18 04:35:21;;;;;;;53.00;34.30;;;;;;;16.78;100.00;100964.28;5033126;28;20113;-80
2023/08/18 04:37:47;;;;;;;47.15;31.33;;;;;;;16.86;100.00;100960.69;5029894;28;20084;-79
2023/08/18 04:40:14;;;;;;;48.45;32.33;;;;;;;16.90;100.00;100961.97;5024084;28;20552;-77
2023/08/18 04:42:40;;;;;;;47.60;31.45;;;;;;;16.88;100.00;100964.78;5017332;28;20582;-79
2023/08/18 04:45:08;;;;;;;48.55;31.15;;;;;;;16.91;100.00;100958.31;5016917;28;20057;-81
2023/08/18 04:47:36;;;;;;;49.58;30.88;;;;;;;16.98;100.00;100969.75;5012497;28;20132;-79
2023/08/18 04:50:04;;;;;;;52.60;32.50;;;;;;;17.06;100.00;100966.97;5020063;28;20084;-79
2023/08/18 04:52:31;;;;;;;53.03;32.38;;;;;;;17.13;100.00;100970.50;5011057;28;20640;-81
2023/08/18 04:54:57;;;;;;;51.10;31.80;;;;;;;17.20;100.00;100955.50;5019067;28;20137;-79
2023/08/18 04:57:24;;;;;;;51.97;32.35;;;;;;;17.31;100.00;100962.09;5020964;28;20156;-78
2023/08/18 04:59:51;;;;;;;48.75;31.35;;;;;;;17.32;100.00;100963.72;5017746;28;20129;-78
2023/08/18 05:02:17;;;;;;;46.88;31.15;;;;;;;17.40;100.00;100957.47;5011623;28;20046;-82
2023/08/18 05:10:09;;;;;;;44.17;29.95;;;;;;;17.90;100.00;100954.56;4919739;28;20056;-82
2023/08/18 05:12:36;;;;;;;42.88;28.35;;;;;;;18.23;100.00;100949.41;4925289;29;20416;-82
2023/08/18 05:15:03;;;;;;;42.58;28.10;;;;;;;18.32;100.00;100955.34;4991358;28;20081;-81
2023/08/18 05:17:30;;;;;;;43.13;28.98;;;;;;;18.51;100.00;100951.94;5024139;28;20536;-81
2023/08/18 05:19:57;;;;;;;39.00;27.60;;;;;;;18.50;100.00;100949.47;5025565;28;20057;-81
2023/08/18 05:22:23;;;;;;;40.45;27.20;;;;;;;18.55;100.00;100947.03;5025057;28;20125;-81
2023/08/18 05:24:52;;;;;;;36.55;26.80;;;;;;;18.62;100.00;100952.41;5025189;28;20445;-82
2023/08/18 05:27:20;;;;;;;35.67;26.23;;;;;;;18.81;100.00;100962.22;5026608;28;20464;-82
2023/08/18 05:29:51;;;;;;;36.85;25.67;;;;;;;18.86;100.00;100951.84;5025245;28;20050;-81
2023/08/18 05:32:18;;;;;;;36.08;25.67;;;;;;;19.07;100.00;100961.44;5023010;28;20054;-81
2023/08/18 05:34:47;;;;;;;36.78;26.40;;;;;;;19.16;100.00;100965.50;5022701;28;20042;-80
2023/08/18 05:37:13;;;;;;;42.53;25.88;;;;;;;19.12;100.00;100970.41;5024318;28;20072;-80
2023/08/18 05:39:40;;;;;;;38.85;26.08;;;;;;;19.17;100.00;100957.34;5023497;28;20141;-81
2023/08/18 05:42:07;;;;;;;39.33;26.67;;;;;;;19.26;100.00;100955.31;5024014;28;20088;-81
2023/08/18 05:44:35;;;;;;;38.58;26.85;;;;;;;19.38;100.00;100960.78;5022958;28;20050;-79
2023/08/18 05:47:01;;;;;;;38.28;26.58;;;;;;;19.37;100.00;100960.00;5022937;28;20088;-80
2023/08/18 05:49:28;;;;;;;42.67;27.65;;;;;;;19.37;100.00;100956.53;5019068;28;20050;-81
2023/08/18 05:51:55;;;;;;;38.10;25.48;;;;;;;19.46;100.00;100955.28;5017543;28;20133;-81
2023/08/18 05:54:21;;;;;;;39.92;25.73;;;;;;;19.52;100.00;100955.31;5021256;28;20078;-80
2023/08/18 05:56:48;;;;;;;40.28;26.77;;;;;;;19.42;100.00;100954.88;5021517;28;20117;-81
2023/08/18 05:59:14;;;;;;;36.30;25.67;;;;;;;19.55;100.00;100952.25;5021430;28;20077;-81
2023/08/18 06:01:42;;;;;;;39.85;26.70;;;;;;;19.66;100.00;100953.44;5016571;28;20089;-82
2023/08/18 06:04:15;;;;;;;37.42;25.60;;;;;;;19.86;100.00;100956.84;5021171;28;20053;-81
2023/08/18 06:06:41;;;;;;;33.72;24.85;;;;;;;19.96;100.00;100947.63;5021378;28;20100;-82
2023/08/18 06:09:08;;;;;;;37.08;26.52;;;;;;;20.08;100.00;100938.81;5021839;28;20096;-81
2023/08/18 06:11:35;;;;;;;34.72;24.27;;;;;;;20.23;100.00;100951.00;5021788;28;20214;-81
2023/08/18 06:14:04;;;;;;;33.55;24.98;;;;;;;20.21;100.00;100945.91;5020551;28;20082;-82
2023/08/18 06:16:31;;;;;;;37.67;25.55;;;;;;;20.05;100.00;100946.38;5016449;28;20084;-81
2023/08/18 06:19:00;;;;;;;35.97;25.13;;;;;;;19.96;100.00;100945.78;5015626;28;20088;-81
2023/08/18 06:21:27;;;;;;;37.80;26.23;;;;;;;19.69;100.00;100946.91;5019973;28;20117;-80
2023/08/18 06:23:57;;;;;;;39.50;27.58;;;;;;;19.43;100.00;100958.34;5018447;28;20080;-81
2023/08/18 06:26:27;;;;;;;37.40;26.73;;;;;;;19.53;100.00;100966.72;5010418;28;20117;-82
2023/08/18 06:28:54;;;;;;;35.28;26.23;;;;;;;19.73;100.00;100969.38;5018728;28;20566;-81
2023/08/18 06:31:21;;;;;;;34.33;26.50;;;;;;;19.81;100.00;100963.84;5017333;28;20054;-81
2023/08/18 06:33:47;;;;;;;33.30;24.95;;;;;;;20.11;100.00;100949.00;5018190;28;20072;-81
2023/08/18 06:36:15;;;;;;;35.67;25.52;;;;;;;20.19;100.00;100955.94;5017571;28;20049;-81
2023/08/18 06:38:42;;;;;;;32.10;24.83;;;;;;;20.49;100.00;100940.25;5019661;28;20065;-82
2023/08/18 06:41:10;;;;;;;30.75;23.17;;;;;;;20.97;100.00;100945.88;5021477;28;20164;-83
2023/08/18 06:43:36;;;;;;;30.23;22.10;;;;;;;21.38;100.00;100939.19;5021865;28;20054;-82
2023/08/18 06:46:05;;;;;;;26.20;21.25;;;;;;;21.33;100.00;100931.84;5021242;28;20112;-82
2023/08/18 06:48:32;;;;;;;22.52;19.27;;;;;;;21.13;100.00;100933.88;5014179;28;20064;-83
2023/08/18 06:51:00;;;;;;;24.92;18.92;;;;;;;22.14;99.70;100923.63;5022173;28;20109;-82
2023/08/18 06:53:28;;;;;;;23.40;19.05;;;;;;;22.67;94.81;100916.72;5021549;28;20124;-82
2023/08/18 06:55:56;;;;;;;23.65;18.20;;;;;;;23.09;91.66;100915.66;5020564;28;20049;-83
2023/08/18 06:58:23;;;;;;;20.52;17.98;;;;;;;23.70;90.11;100892.13;5021036;28;20069;-83
2023/08/18 07:00:49;;;;;;;24.45;20.25;;;;;;;24.16;86.91;100894.66;5022222;28;20069;-84
2023/08/18 07:03:16;;;;;;;26.83;20.95;;;;;;;24.76;83.74;100887.94;5023314;28;20080;-81
2023/08/18 07:05:43;;;;;;;22.58;18.92;;;;;;;25.50;81.27;100888.53;5022932;28;20053;-81
2023/08/18 07:08:10;;;;;;;21.55;18.85;;;;;;;25.85;79.88;100893.53;5023276;28;20077;-84
2023/08/18 07:10:38;;;;;;;25.42;20.95;;;;;;;25.88;78.90;100884.19;5021864;28;20053;-82
2023/08/18 07:13:05;;;;;;;27.02;21.15;;;;;;;25.34;79.06;100886.69;5022601;28;20049;-81
2023/08/18 07:15:32;;;;;;;22.98;19.00;;;;;;;24.92;80.11;100905.06;5024314;28;20049;-81
2023/08/18 07:17:59;;;;;;;23.40;19.30;;;;;;;25.49;79.10;100880.75;5022984;28;20046;-83
2023/08/18 07:20:25;;;;;;;19.02;17.02;;;;;;;26.56;77.67;100891.59;5022451;28;20069;-83
2023/08/18 07:22:53;;;;;;;23.98;17.98;;;;;;;25.97;78.63;100893.41;5021855;28;20167;-82
2023/08/18 07:25:22;;;;;;;19.67;17.45;;;;;;;27.09;73.96;100868.38;5023308;28;20053;-83
2023/08/18 07:27:50;;;;;;;23.10;18.98;;;;;;;26.43;75.75;100892.03;5016821;28;20109;-82
2023/08/18 07:30:17;;;;;;;21.17;18.08;;;;;;;26.70;76.27;100886.59;5020001;28;20136;-82
2023/08/18 07:32:44;;;;;;;24.20;18.98;;;;;;;25.86;76.95;100880.94;5019088;28;20077;-82
2023/08/18 07:35:10;;;;;;;18.10;16.17;;;;;;;27.12;75.13;100880.47;5018196;28;20369;-82
2023/08/18 07:37:37;;;;;;;17.63;15.15;;;;;;;27.84;72.99;100861.75;5010790;28;20076;-82
2023/08/18 07:40:06;;;;;;;24.23;16.05;;;;;;;28.00;71.78;100858.00;5015710;28;20077;-83
2023/08/18 07:42:33;;;;;;;20.20;17.00;;;;;;;26.32;75.67;100885.75;5010264;28;20507;-83
2023/08/18 07:45:02;;;;;;;18.98;17.02;;;;;;;26.12;76.71;100888.19;5015309;28;20060;-82
2023/08/18 07:47:29;;;;;;;19.77;16.42;;;;;;;26.74;75.78;100879.66;5014777;28;20105;-82
2023/08/18 07:49:55;;;;;;;17.95;15.93;;;;;;;27.05;73.81;100851.97;5008699;28;20092;-82
2023/08/18 07:52:22;;;;;;;19.48;15.20;;;;;;;27.59;73.80;100867.03;5002914;28;20061;-82
2023/08/18 07:54:50;;;;;;;19.02;14.70;;;;;;;26.56;75.01;100875.47;5007464;28;20042;-82
2023/08/18 07:57:17;;;;;;;17.70;15.90;;;;;;;26.51;75.61;100880.00;5007954;28;20061;-83
2023/08/18 07:59:43;;;;;;;20.48;16.40;;;;;;;26.66;76.44;100891.69;5012846;28;20046;-82
2023/08/18 08:02:11;;;;;;;22.00;19.58;;;;;;;25.66;78.10;100886.88;5014601;28;20511;-83
2023/08/18 08:04:39;;;;;;;23.13;18.88;;;;;;;25.98;79.16;100889.66;5012366;28;20054;-83
2023/08/18 08:07:06;;;;;;;21.50;19.20;;;;;;;25.57;79.17;100889.13;5015471;28;20057;-82
2023/08/18 08:09:33;;;;;;;22.10;19.75;;;;;;;25.11;79.53;100891.19;5018797;28;20045;-82
2023/08/18 08:12:03;;;;;;;21.70;18.88;;;;;;;25.40;81.19;100888.41;5017370;28;20042;-83
2023/08/18 08:14:29;;;;;;;21.55;19.15;;;;;;;26.22;79.21;100882.13;5012990;28;20121;-80
2023/08/18 08:16:59;;;;;;;20.73;18.52;;;;;;;26.65;75.90;100852.47;5014022;28;20085;-83
2023/08/18 08:19:27;;;;;;;22.10;19.70;;;;;;;25.77;78.03;100854.59;5017848;28;20053;-83
2023/08/18 08:21:55;;;;;;;21.83;19.63;;;;;;;26.41;77.21;100853.91;5017971;28;20057;-82
2023/08/18 08:24:21;;;;;;;20.75;18.55;;;;;;;26.84;76.20;100854.75;5013202;28;20137;-82
2023/08/18 08:26:48;;;;;;;20.35;18.15;;;;;;;27.03;73.89;100847.91;5016981;28;20042;-81
2023/08/18 08:29:15;;;;;;;23.48;18.67;;;;;;;26.29;76.45;100853.22;5020399;28;20111;-83
2023/08/18 08:31:42;;;;;;;21.13;18.90;;;;;;;27.13;74.43;100837.25;5019187;28;20066;-83
2023/08/18 08:34:08;;;;;;;19.70;17.60;;;;;;;27.62;72.98;100823.50;5010987;28;20046;-84
2023/08/18 08:36:36;;;;;;;19.67;17.27;;;;;;;27.78;71.51;100816.28;5018406;28;20161;-83
2023/08/18 08:39:04;;;;;;;22.60;17.65;;;;;;;27.08;73.28;100845.25;5014579;28;20055;-82
2023/08/18 08:41:30;;;;;;;18.88;16.88;;;;;;;27.54;73.42;100848.16;5003926;28;20042;-82
2023/08/18 08:43:57;;;;;;;26.38;18.13;;;;;;;27.38;72.23;100848.13;5013914;28;20054;-83
2023/08/18 08:46:25;;;;;;;19.67;16.80;;;;;;;27.34;72.42;100847.03;5017865;28;20053;-82
2023/08/18 08:48:58;;;;;;;18.00;16.00;;;;;;;26.79;75.90;100879.69;5016899;28;20042;-84
2023/08/18 08:51:53;;;;;;;21.90;16.27;;;;;;;26.71;75.62;100847.97;5012071;28;20069;-85
2023/08/18 08:54:40;;;;;;;13.40;12.00;;;;;;;25.94;77.32;100859.06;5002141;28;20066;-84
2023/08/18 08:57:32;;;;;;;14.20;12.32;;;;;;;25.11;79.91;100875.13;5006371;28;20080;-83
2023/08/18 09:00:14;;;;;;;;;;;;;;;26.29;79.09;100888.09;5006642;28;20073;-84
2023/08/18 09:03:10;;;;;;;13.63;12.30;;;;;;;25.94;79.25;100870.59;5003258;28;19921;-85
2023/08/18 09:05:49;;;;;;;17.65;12.02;;;;;;;26.25;76.64;100836.03;5113864;22;20054;-85
2023/08/18 09:08:36;;;;;;;14.38;11.73;;;;;;;25.98;78.07;100847.56;5011535;28;20070;-85
2023/08/18 09:11:45;;;;;;;12.93;11.57;;;;;;;26.36;77.28;100856.53;5004515;28;20057;-85
2023/08/18 09:14:45;;;;;;;13.73;12.05;;;;;;;26.92;76.43;100856.97;5017165;28;20049;-85
2023/08/18 09:19:59;;;;;;;14.95;12.27;;;;;;;26.92;76.22;100840.88;5004265;28;20072;-84
2023/08/18 09:23:00;;;;;;;14.20;11.13;;;;;;;27.51;73.44;100821.81;5016971;28;20054;-84
2023/08/18 09:25:31;;;;;;;15.65;11.63;;;;;;;27.40;74.98;100843.28;5012804;28;20054;-84
2023/08/18 09:28:09;;;;;;;14.77;13.35;;;;;;;27.18;75.68;100866.81;5015467;28;20078;-84
2023/08/18 09:30:48;;;;;;;13.50;12.10;;;;;;;27.32;75.59;100851.84;5011542;28;20073;-84
2023/08/18 09:33:19;;;;;;;13.68;12.30;;;;;;;27.45;75.63;100866.66;5012634;28;20088;-84
2023/08/18 09:35:45;;;;;;;14.90;13.10;;;;;;;28.00;72.83;100823.03;5016060;28;20053;-83
2023/08/18 09:41:18;;;;;;;16.45;14.85;;;;;;;27.04;76.46;100865.66;5017120;28;20089;-82
2023/08/18 09:44:22;;;;;;;17.92;16.17;;;;;;;26.85;75.45;100837.59;5016231;28;20073;-81
2023/08/18 09:46:56;;;;;;;18.42;16.52;;;;;;;26.58;77.91;100835.78;4960253;28;20262;-82
2023/08/18 09:49:24;;;;;;;18.05;16.25;;;;;;;27.40;76.44;100843.28;5006560;28;20046;-81
2023/08/18 09:52:02;;;;;;;21.63;18.27;;;;;;;26.41;77.11;100835.13;5019567;28;20076;-82
2023/08/18 09:54:32;;;;;;;19.42;16.58;;;;;;;27.16;77.45;100858.22;5014392;28;20046;-82
2023/08/18 09:57:06;;;;;;;21.50;19.23;;;;;;;25.95;78.55;100842.72;5011161;28;20074;-82
2023/08/18 09:59:38;;;;;;;20.65;18.58;;;;;;;25.65;80.66;100848.53;5014886;28;20059;-81
2023/08/18 10:02:05;;;;;;;21.20;18.98;;;;;;;25.25;82.09;100853.38;5014293;28;20529;-84
2023/08/18 10:04:41;;;;;;;19.10;17.20;;;;;;;26.46;80.36;100845.09;5014169;28;20045;-81
2023/08/18 10:07:08;;;;;;;21.77;18.63;;;;;;;25.92;79.38;100821.78;5016303;28;20085;-82
2023/08/18 10:09:40;;;;;;;19.52;17.52;;;;;;;26.72;79.53;100845.03;5017515;28;20425;-83
2023/08/18 10:12:12;;;;;;;22.73;18.17;;;;;;;26.53;78.33;100837.63;5019312;28;20125;-83
2023/08/18 10:14:47;;;;;;;20.70;18.27;;;;;;;26.41;78.56;100837.81;5007649;28;20512;-84
2023/08/18 10:17:50;;;;;;;20.88;18.77;;;;;;;26.76;77.24;100821.16;5020821;28;20077;-84
2023/08/18 10:21:15;;;;;;;22.60;20.38;;;;;;;27.08;76.74;100816.53;5004953;28;20147;-84
2023/08/18 10:23:47;;;;;;;20.15;18.02;;;;;;;27.64;76.93;100797.16;5003219;28;20060;-85
2023/08/18 10:26:55;;;;;;;19.58;17.42;;;;;;;27.26;76.02;100817.16;5019037;28;20104;-85
2023/08/18 10:30:03;;;;;;;19.85;17.95;;;;;;;28.00;76.02;100814.97;5016974;28;20269;-82
2023/08/18 10:33:10;;;;;;;20.67;17.75;;;;;;;27.63;74.63;100787.47;5018559;28;20058;-84
2023/08/18 10:39:10;;;;;;;17.48;15.68;;;;;;;27.74;75.62;100816.81;5015372;28;20055;-84
2023/08/18 10:42:27;;;;;;;21.38;16.13;;;;;;;26.97;75.30;100774.56;5006619;28;20125;-85
2023/08/18 10:45:12;;;;;;;17.60;15.77;;;;;;;26.97;76.33;100795.25;5015933;28;20046;-84
2023/08/18 10:47:58;;;;;;;16.98;15.30;;;;;;;26.97;76.26;100814.84;5017216;28;20053;-84
2023/08/18 10:50:35;;;;;;;17.88;16.13;;;;;;;27.35;77.02;100813.72;5014345;28;20574;-84
2023/08/18 10:53:12;;;;;;;23.60;17.23;;;;;;;27.85;75.98;100806.09;5019782;28;20152;-84
2023/08/18 10:59:22;;;;;;;19.77;14.75;;;;;;;28.11;74.98;100801.53;5019550;28;20460;-84
2023/08/18 11:02:13;;;;;;;18.05;16.27;;;;;;;27.55;75.03;100775.31;5010761;28;20100;-86
2023/08/18 11:04:40;;;;;;;15.68;14.27;;;;;;;27.53;75.28;100765.91;5015607;28;20046;-85
2023/08/18 11:07:27;;;;;;;16.38;14.05;;;;;;;28.23;74.75;100764.44;5015465;28;20057;-82
2023/08/18 11:09:59;;;;;;;17.05;13.50;;;;;;;28.63;74.39;100769.78;5013650;28;20093;-84
2023/08/18 11:12:36;;;;;;;19.10;14.32;;;;;;;28.18;73.69;100742.88;5017015;28;20050;-84
2023/08/18 11:15:24;;;;;;;16.05;14.45;;;;;;;26.88;76.16;100746.59;5016724;28;20059;-84
2023/08/18 11:18:09;;;;;;;15.50;13.80;;;;;;;26.82;76.90;100736.91;5016672;28;20041;-84
2023/08/18 11:20:38;;;;;;;13.85;12.52;;;;;;;27.55;75.69;100736.91;4995147;28;20069;-84
2023/08/18 11:32:37;;;;;;;15.30;13.68;;;;;;;27.77;75.01;100728.63;4895300;28;20060;-84
2023/08/18 11:44:42;;;;;;;14.00;11.43;;;;;;;27.88;74.04;100706.88;5005838;28;20120;-85
2023/08/18 11:47:36;;;;;;;16.35;11.85;;;;;;;28.38;73.22;100719.47;5018628;28;20049;-84
2023/08/18 12:03:59;;;;;;;;;;;;;;;;;;;;;
2023/08/18 12:06:57;;;;;;;12.88;11.00;;;;;;;28.59;73.91;100682.56;4997803;28;20042;-83
2023/08/18 12:16:02;;;;;;;13.10;11.77;;;;;;;28.39;74.29;100688.78;4905365;29;20068;-83
2023/08/18 12:18:31;;;;;;;13.15;11.00;;;;;;;29.03;73.30;100693.44;4974801;28;20071;-85
2023/08/18 12:21:30;;;;;;;12.38;11.15;;;;;;;29.42;71.52;100683.81;5020170;28;20046;-85
2023/08/18 12:24:24;;;;;;;13.38;11.65;;;;;;;29.03;71.70;100649.53;5009866;28;20050;-84
2023/08/18 12:33:29;;;;;;;14.40;10.55;;;;;;;29.11;71.17;100659.72;4979988;28;20070;-85
2023/08/18 12:43:25;;;;;;;11.88;10.75;;;;;;;29.02;70.85;100642.53;4932817;29;20074;-84